sensor_id;sensor_type;location;lat;lon;timestamp;P1;durP1;ratioP1;P2;durP2;ratioP2
38132;SDS011;23948;43.252;26.572;2023-05-21T00:00:23;12.88;;;7.43;;
38132;SDS011;23948;43.252;26.572;2023-05-21T00:02:48;10.63;;;7.18;;
38132;SDS011;23948;43.252;26.572;2023-05-21T00:05:13;11.85;;;7.30;;
38132;SDS011;23948;43.252;26.572;2023-05-21T00:07:40;13.82;;;6.93;;
38132;SDS011;23948;43.252;26.572;2023-05-21T00:10:06;11.65;;;6.97;;
38132;SDS011;23948;43.252;26.572;2023-05-21T00:12:31;13.32;;;7.40;;
38132;SDS011;23948;43.252;26.572;2023-05-21T00:14:57;11.23;;;7.75;;
38132;SDS011;23948;43.252;26.572;2023-05-21T00:17:22;12.50;;;7.40;;
38132;SDS011;23948;43.252;26.572;2023-05-21T00:19:48;12.65;;;7.47;;
38132;SDS011;23948;43.252;26.572;2023-05-21T00:22:14;12.48;;;7.07;;
38132;SDS011;23948;43.252;26.572;2023-05-21T00:24:40;11.32;;;6.78;;
38132;SDS011;23948;43.252;26.572;2023-05-21T00:27:05;16.92;;;7.53;;
38132;SDS011;23948;43.252;26.572;2023-05-21T00:29:30;11.50;;;7.55;;
38132;SDS011;23948;43.252;26.572;2023-05-21T00:31:56;13.98;;;7.32;;
38132;SDS011;23948;43.252;26.572;2023-05-21T00:34:21;11.27;;;7.38;;
38132;SDS011;23948;43.252;26.572;2023-05-21T00:36:46;11.55;;;7.25;;
38132;SDS011;23948;43.252;26.572;2023-05-21T00:39:12;10.80;;;7.00;;
38132;SDS011;23948;43.252;26.572;2023-05-21T00:41:37;12.35;;;7.45;;
38132;SDS011;23948;43.252;26.572;2023-05-21T00:44:07;10.38;;;7.40;;
38132;SDS011;23948;43.252;26.572;2023-05-21T00:46:32;12.73;;;7.55;;
38132;SDS011;23948;43.252;26.572;2023-05-21T00:48:58;10.63;;;7.05;;
38132;SDS011;23948;43.252;26.572;2023-05-21T00:51:24;12.02;;;7.05;;
38132;SDS011;23948;43.252;26.572;2023-05-21T00:53:50;8.98;;;6.70;;
38132;SDS011;23948;43.252;26.572;2023-05-21T00:56:16;10.02;;;7.13;;
38132;SDS011;23948;43.252;26.572;2023-05-21T00:58:43;15.40;;;7.53;;
38132;SDS011;23948;43.252;26.572;2023-05-21T01:01:08;12.65;;;7.57;;
38132;SDS011;23948;43.252;26.572;2023-05-21T01:03:37;9.70;;;7.75;;
38132;SDS011;23948;43.252;26.572;2023-05-21T01:06:03;13.57;;;7.88;;
38132;SDS011;23948;43.252;26.572;2023-05-21T01:08:29;13.35;;;7.97;;
38132;SDS011;23948;43.252;26.572;2023-05-21T01:10:54;14.00;;;7.50;;
38132;SDS011;23948;43.252;26.572;2023-05-21T01:13:20;9.93;;;7.05;;
38132;SDS011;23948;43.252;26.572;2023-05-21T01:15:47;13.77;;;8.32;;
38132;SDS011;23948;43.252;26.572;2023-05-21T01:18:13;10.45;;;7.60;;
38132;SDS011;23948;43.252;26.572;2023-05-21T01:20:40;13.98;;;8.20;;
38132;SDS011;23948;43.252;26.572;2023-05-21T01:23:06;14.85;;;8.13;;
38132;SDS011;23948;43.252;26.572;2023-05-21T01:25:32;12.80;;;7.57;;
38132;SDS011;23948;43.252;26.572;2023-05-21T01:27:57;11.30;;;8.38;;
38132;SDS011;23948;43.252;26.572;2023-05-21T01:30:22;10.90;;;7.82;;
38132;SDS011;23948;43.252;26.572;2023-05-21T01:32:59;15.18;;;8.30;;
38132;SDS011;23948;43.252;26.572;2023-05-21T01:38:30;13.63;;;7.80;;
38132;SDS011;23948;43.252;26.572;2023-05-21T01:41:01;10.02;;;7.97;;
38132;SDS011;23948;43.252;26.572;2023-05-21T01:43:28;14.32;;;8.30;;
38132;SDS011;23948;43.252;26.572;2023-05-21T01:45:53;16.17;;;8.88;;
38132;SDS011;23948;43.252;26.572;2023-05-21T01:48:19;16.13;;;8.45;;
38132;SDS011;23948;43.252;26.572;2023-05-21T01:50:45;13.50;;;8.07;;
38132;SDS011;23948;43.252;26.572;2023-05-21T01:53:11;17.48;;;9.02;;
38132;SDS011;23948;43.252;26.572;2023-05-21T01:55:36;11.73;;;8.10;;
38132;SDS011;23948;43.252;26.572;2023-05-21T01:58:06;15.95;;;7.95;;
38132;SDS011;23948;43.252;26.572;2023-05-21T02:00:31;13.48;;;8.40;;
38132;SDS011;23948;43.252;26.572;2023-05-21T02:02:58;11.98;;;7.38;;
38132;SDS011;23948;43.252;26.572;2023-05-21T02:05:23;12.82;;;8.10;;
38132;SDS011;23948;43.252;26.572;2023-05-21T02:07:49;11.18;;;8.05;;
38132;SDS011;23948;43.252;26.572;2023-05-21T02:10:16;15.13;;;8.00;;
38132;SDS011;23948;43.252;26.572;2023-05-21T02:12:41;11.70;;;8.00;;
38132;SDS011;23948;43.252;26.572;2023-05-21T02:15:07;13.27;;;8.13;;
38132;SDS011;23948;43.252;26.572;2023-05-21T02:17:32;12.98;;;7.95;;
38132;SDS011;23948;43.252;26.572;2023-05-21T02:19:58;12.48;;;8.07;;
38132;SDS011;23948;43.252;26.572;2023-05-21T02:22:32;15.02;;;7.90;;
38132;SDS011;23948;43.252;26.572;2023-05-21T02:24:57;11.52;;;8.93;;
38132;SDS011;23948;43.252;26.572;2023-05-21T02:27:23;13.90;;;7.93;;
38132;SDS011;23948;43.252;26.572;2023-05-21T02:29:48;14.30;;;8.32;;
38132;SDS011;23948;43.252;26.572;2023-05-21T02:32:13;13.05;;;7.85;;
38132;SDS011;23948;43.252;26.572;2023-05-21T02:34:38;13.95;;;7.97;;
38132;SDS011;23948;43.252;26.572;2023-05-21T02:37:06;14.18;;;8.40;;
38132;SDS011;23948;43.252;26.572;2023-05-21T02:39:33;9.68;;;7.28;;
38132;SDS011;23948;43.252;26.572;2023-05-21T02:41:59;10.45;;;7.57;;
38132;SDS011;23948;43.252;26.572;2023-05-21T02:44:24;13.55;;;8.20;;
38132;SDS011;23948;43.252;26.572;2023-05-21T02:46:49;14.00;;;8.15;;
38132;SDS011;23948;43.252;26.572;2023-05-21T02:49:15;13.32;;;8.45;;
38132;SDS011;23948;43.252;26.572;2023-05-21T02:51:40;12.55;;;8.02;;
38132;SDS011;23948;43.252;26.572;2023-05-21T02:54:05;12.38;;;8.27;;
38132;SDS011;23948;43.252;26.572;2023-05-21T02:56:30;14.93;;;7.65;;
38132;SDS011;23948;43.252;26.572;2023-05-21T02:58:56;11.82;;;8.02;;
38132;SDS011;23948;43.252;26.572;2023-05-21T03:01:21;14.23;;;8.07;;
38132;SDS011;23948;43.252;26.572;2023-05-21T03:03:46;11.57;;;8.07;;
38132;SDS011;23948;43.252;26.572;2023-05-21T03:06:11;11.63;;;7.30;;
38132;SDS011;23948;43.252;26.572;2023-05-21T03:08:37;11.63;;;7.95;;
38132;SDS011;23948;43.252;26.572;2023-05-21T03:11:02;12.77;;;7.63;;
38132;SDS011;23948;43.252;26.572;2023-05-21T03:13:28;14.10;;;8.50;;
38132;SDS011;23948;43.252;26.572;2023-05-21T03:15:54;12.18;;;7.75;;
38132;SDS011;23948;43.252;26.572;2023-05-21T03:18:22;10.85;;;7.68;;
38132;SDS011;23948;43.252;26.572;2023-05-21T03:20:47;11.07;;;8.13;;
38132;SDS011;23948;43.252;26.572;2023-05-21T03:23:12;10.75;;;7.53;;
38132;SDS011;23948;43.252;26.572;2023-05-21T03:25:38;12.88;;;8.07;;
38132;SDS011;23948;43.252;26.572;2023-05-21T03:28:04;12.70;;;7.28;;
38132;SDS011;23948;43.252;26.572;2023-05-21T03:30:30;10.68;;;7.03;;
38132;SDS011;23948;43.252;26.572;2023-05-21T03:32:55;14.57;;;7.85;;
38132;SDS011;23948;43.252;26.572;2023-05-21T03:35:21;16.52;;;8.40;;
38132;SDS011;23948;43.252;26.572;2023-05-21T03:37:47;13.10;;;7.72;;
38132;SDS011;23948;43.252;26.572;2023-05-21T03:40:12;12.30;;;8.10;;
38132;SDS011;23948;43.252;26.572;2023-05-21T03:42:37;11.27;;;7.85;;
38132;SDS011;23948;43.252;26.572;2023-05-21T03:45:03;11.55;;;7.65;;
38132;SDS011;23948;43.252;26.572;2023-05-21T03:47:28;10.20;;;8.05;;
38132;SDS011;23948;43.252;26.572;2023-05-21T03:49:53;10.82;;;7.65;;
38132;SDS011;23948;43.252;26.572;2023-05-21T03:52:19;11.95;;;7.43;;
38132;SDS011;23948;43.252;26.572;2023-05-21T03:54:44;11.57;;;7.53;;
38132;SDS011;23948;43.252;26.572;2023-05-21T03:57:09;13.15;;;7.15;;
38132;SDS011;23948;43.252;26.572;2023-05-21T03:59:35;10.85;;;7.20;;
38132;SDS011;23948;43.252;26.572;2023-05-21T04:02:00;10.15;;;7.40;;
38132;SDS011;23948;43.252;26.572;2023-05-21T04:04:25;10.00;;;7.53;;
38132;SDS011;23948;43.252;26.572;2023-05-21T04:06:53;10.82;;;7.57;;
38132;SDS011;23948;43.252;26.572;2023-05-21T04:09:18;12.07;;;7.35;;
38132;SDS011;23948;43.252;26.572;2023-05-21T04:11:43;11.38;;;7.10;;
38132;SDS011;23948;43.252;26.572;2023-05-21T04:14:09;12.73;;;6.90;;
38132;SDS011;23948;43.252;26.572;2023-05-21T04:16:34;8.70;;;7.03;;
38132;SDS011;23948;43.252;26.572;2023-05-21T04:19:02;11.80;;;7.45;;
38132;SDS011;23948;43.252;26.572;2023-05-21T04:21:27;10.07;;;6.80;;
38132;SDS011;23948;43.252;26.572;2023-05-21T04:23:53;10.85;;;6.97;;
38132;SDS011;23948;43.252;26.572;2023-05-21T04:26:21;11.10;;;7.28;;
38132;SDS011;23948;43.252;26.572;2023-05-21T04:28:46;11.07;;;7.30;;
38132;SDS011;23948;43.252;26.572;2023-05-21T04:31:12;11.52;;;6.75;;
38132;SDS011;23948;43.252;26.572;2023-05-21T04:33:37;12.20;;;7.07;;
38132;SDS011;23948;43.252;26.572;2023-05-21T04:36:06;11.60;;;7.35;;
38132;SDS011;23948;43.252;26.572;2023-05-21T04:38:33;12.85;;;6.95;;
38132;SDS011;23948;43.252;26.572;2023-05-21T04:41:01;12.43;;;7.32;;
38132;SDS011;23948;43.252;26.572;2023-05-21T04:43:28;9.90;;;6.35;;
38132;SDS011;23948;43.252;26.572;2023-05-21T04:45:53;10.07;;;6.97;;
38132;SDS011;23948;43.252;26.572;2023-05-21T04:48:19;14.05;;;6.50;;
38132;SDS011;23948;43.252;26.572;2023-05-21T04:50:44;12.27;;;6.38;;
38132;SDS011;23948;43.252;26.572;2023-05-21T04:53:10;15.90;;;6.78;;
38132;SDS011;23948;43.252;26.572;2023-05-21T04:55:35;9.98;;;6.50;;
38132;SDS011;23948;43.252;26.572;2023-05-21T04:58:07;8.27;;;5.38;;
38132;SDS011;23948;43.252;26.572;2023-05-21T05:00:34;9.25;;;6.03;;
38132;SDS011;23948;43.252;26.572;2023-05-21T05:03:01;10.35;;;6.38;;
38132;SDS011;23948;43.252;26.572;2023-05-21T05:05:27;9.88;;;6.30;;
38132;SDS011;23948;43.252;26.572;2023-05-21T05:07:52;10.98;;;5.95;;
38132;SDS011;23948;43.252;26.572;2023-05-21T05:10:17;10.82;;;6.30;;
38132;SDS011;23948;43.252;26.572;2023-05-21T05:12:42;10.52;;;6.88;;
38132;SDS011;23948;43.252;26.572;2023-05-21T05:15:08;10.45;;;6.18;;
38132;SDS011;23948;43.252;26.572;2023-05-21T05:17:34;11.57;;;6.60;;
38132;SDS011;23948;43.252;26.572;2023-05-21T05:20:00;12.70;;;6.10;;
38132;SDS011;23948;43.252;26.572;2023-05-21T05:22:25;8.60;;;6.45;;
38132;SDS011;23948;43.252;26.572;2023-05-21T05:24:50;13.40;;;6.32;;
38132;SDS011;23948;43.252;26.572;2023-05-21T05:27:16;8.88;;;6.22;;
38132;SDS011;23948;43.252;26.572;2023-05-21T05:29:42;11.32;;;6.65;;
38132;SDS011;23948;43.252;26.572;2023-05-21T05:32:08;10.30;;;6.10;;
38132;SDS011;23948;43.252;26.572;2023-05-21T05:34:33;9.48;;;5.90;;
38132;SDS011;23948;43.252;26.572;2023-05-21T05:36:58;10.23;;;6.35;;
38132;SDS011;23948;43.252;26.572;2023-05-21T05:39:24;11.98;;;6.78;;
38132;SDS011;23948;43.252;26.572;2023-05-21T05:41:49;12.70;;;6.70;;
38132;SDS011;23948;43.252;26.572;2023-05-21T05:44:14;8.32;;;5.75;;
38132;SDS011;23948;43.252;26.572;2023-05-21T05:46:40;14.95;;;6.30;;
38132;SDS011;23948;43.252;26.572;2023-05-21T05:49:05;10.73;;;6.38;;
38132;SDS011;23948;43.252;26.572;2023-05-21T05:51:30;12.88;;;6.70;;
38132;SDS011;23948;43.252;26.572;2023-05-21T05:53:55;12.80;;;6.10;;
38132;SDS011;23948;43.252;26.572;2023-05-21T05:56:21;11.88;;;6.32;;
38132;SDS011;23948;43.252;26.572;2023-05-21T05:58:46;10.45;;;6.70;;
38132;SDS011;23948;43.252;26.572;2023-05-21T06:01:11;9.85;;;6.50;;
38132;SDS011;23948;43.252;26.572;2023-05-21T06:03:37;11.23;;;6.57;;
38132;SDS011;23948;43.252;26.572;2023-05-21T06:06:02;10.63;;;6.20;;
38132;SDS011;23948;43.252;26.572;2023-05-21T06:08:28;11.60;;;6.68;;
38132;SDS011;23948;43.252;26.572;2023-05-21T06:10:53;10.02;;;6.60;;
38132;SDS011;23948;43.252;26.572;2023-05-21T06:13:18;13.38;;;6.20;;
38132;SDS011;23948;43.252;26.572;2023-05-21T06:15:43;10.45;;;6.10;;
38132;SDS011;23948;43.252;26.572;2023-05-21T06:18:09;13.02;;;6.47;;
38132;SDS011;23948;43.252;26.572;2023-05-21T06:20:35;9.60;;;5.82;;
38132;SDS011;23948;43.252;26.572;2023-05-21T06:23:00;12.10;;;6.43;;
38132;SDS011;23948;43.252;26.572;2023-05-21T06:25:25;14.38;;;6.65;;
38132;SDS011;23948;43.252;26.572;2023-05-21T06:27:53;8.73;;;5.95;;
38132;SDS011;23948;43.252;26.572;2023-05-21T06:30:19;12.10;;;6.70;;
38132;SDS011;23948;43.252;26.572;2023-05-21T06:32:44;11.35;;;6.32;;
38132;SDS011;23948;43.252;26.572;2023-05-21T06:35:09;11.02;;;5.97;;
38132;SDS011;23948;43.252;26.572;2023-05-21T06:37:35;12.15;;;6.68;;
38132;SDS011;23948;43.252;26.572;2023-05-21T06:40:00;18.60;;;6.78;;
38132;SDS011;23948;43.252;26.572;2023-05-21T06:42:26;12.50;;;5.82;;
38132;SDS011;23948;43.252;26.572;2023-05-21T06:44:51;8.20;;;5.45;;
38132;SDS011;23948;43.252;26.572;2023-05-21T06:47:16;9.35;;;6.22;;
38132;SDS011;23948;43.252;26.572;2023-05-21T06:49:41;11.85;;;6.07;;
38132;SDS011;23948;43.252;26.572;2023-05-21T06:52:07;10.10;;;6.22;;
38132;SDS011;23948;43.252;26.572;2023-05-21T06:54:32;10.57;;;5.93;;
38132;SDS011;23948;43.252;26.572;2023-05-21T06:56:58;13.55;;;5.53;;
38132;SDS011;23948;43.252;26.572;2023-05-21T06:59:23;10.85;;;5.50;;
38132;SDS011;23948;43.252;26.572;2023-05-21T07:01:49;9.82;;;5.40;;
38132;SDS011;23948;43.252;26.572;2023-05-21T07:04:14;10.25;;;5.93;;
38132;SDS011;23948;43.252;26.572;2023-05-21T07:06:39;9.38;;;4.80;;
38132;SDS011;23948;43.252;26.572;2023-05-21T07:09:05;9.65;;;6.20;;
38132;SDS011;23948;43.252;26.572;2023-05-21T07:11:31;12.93;;;6.50;;
38132;SDS011;23948;43.252;26.572;2023-05-21T07:13:57;11.15;;;6.07;;
38132;SDS011;23948;43.252;26.572;2023-05-21T07:16:22;12.93;;;5.55;;
38132;SDS011;23948;43.252;26.572;2023-05-21T07:18:47;11.73;;;5.63;;
38132;SDS011;23948;43.252;26.572;2023-05-21T07:21:13;7.95;;;5.07;;
38132;SDS011;23948;43.252;26.572;2023-05-21T07:23:38;9.38;;;5.90;;
38132;SDS011;23948;43.252;26.572;2023-05-21T07:26:03;9.13;;;5.65;;
38132;SDS011;23948;43.252;26.572;2023-05-21T07:28:29;11.15;;;5.80;;
38132;SDS011;23948;43.252;26.572;2023-05-21T07:30:55;12.55;;;6.97;;
38132;SDS011;23948;43.252;26.572;2023-05-21T07:33:20;12.05;;;6.03;;
38132;SDS011;23948;43.252;26.572;2023-05-21T07:35:46;9.20;;;4.63;;
38132;SDS011;23948;43.252;26.572;2023-05-21T07:38:12;10.20;;;5.47;;
38132;SDS011;23948;43.252;26.572;2023-05-21T07:40:37;15.55;;;5.53;;
38132;SDS011;23948;43.252;26.572;2023-05-21T07:43:02;9.00;;;4.90;;
38132;SDS011;23948;43.252;26.572;2023-05-21T07:45:27;8.93;;;4.90;;
38132;SDS011;23948;43.252;26.572;2023-05-21T07:47:53;11.47;;;4.87;;
38132;SDS011;23948;43.252;26.572;2023-05-21T07:50:18;7.60;;;4.27;;
38132;SDS011;23948;43.252;26.572;2023-05-21T07:52:43;11.83;;;5.17;;
38132;SDS011;23948;43.252;26.572;2023-05-21T07:55:08;7.23;;;4.73;;
38132;SDS011;23948;43.252;26.572;2023-05-21T07:57:34;11.85;;;4.70;;
38132;SDS011;23948;43.252;26.572;2023-05-21T07:59:59;9.27;;;5.05;;
38132;SDS011;23948;43.252;26.572;2023-05-21T08:02:25;11.07;;;5.10;;
38132;SDS011;23948;43.252;26.572;2023-05-21T08:04:50;7.60;;;4.10;;
38132;SDS011;23948;43.252;26.572;2023-05-21T08:07:16;12.23;;;5.22;;
38132;SDS011;23948;43.252;26.572;2023-05-21T08:09:43;8.60;;;4.72;;
38132;SDS011;23948;43.252;26.572;2023-05-21T08:12:09;7.03;;;5.05;;
38132;SDS011;23948;43.252;26.572;2023-05-21T08:14:35;8.52;;;4.70;;
38132;SDS011;23948;43.252;26.572;2023-05-21T08:17:00;9.57;;;4.35;;
38132;SDS011;23948;43.252;26.572;2023-05-21T08:19:25;10.75;;;4.80;;
38132;SDS011;23948;43.252;26.572;2023-05-21T08:21:51;8.52;;;4.18;;
38132;SDS011;23948;43.252;26.572;2023-05-21T08:24:16;7.53;;;4.07;;
38132;SDS011;23948;43.252;26.572;2023-05-21T08:26:41;10.33;;;4.00;;
38132;SDS011;23948;43.252;26.572;2023-05-21T08:29:08;11.48;;;4.30;;
38132;SDS011;23948;43.252;26.572;2023-05-21T08:31:33;7.13;;;3.80;;
38132;SDS011;23948;43.252;26.572;2023-05-21T08:33:59;7.18;;;4.03;;
38132;SDS011;23948;43.252;26.572;2023-05-21T08:36:24;6.82;;;4.03;;
38132;SDS011;23948;43.252;26.572;2023-05-21T08:38:50;7.07;;;3.90;;
38132;SDS011;23948;43.252;26.572;2023-05-21T08:41:15;6.82;;;4.03;;
38132;SDS011;23948;43.252;26.572;2023-05-21T08:43:40;6.97;;;3.80;;
38132;SDS011;23948;43.252;26.572;2023-05-21T08:46:06;7.68;;;3.75;;
38132;SDS011;23948;43.252;26.572;2023-05-21T08:48:32;7.45;;;4.00;;
38132;SDS011;23948;43.252;26.572;2023-05-21T08:50:58;8.68;;;3.72;;
38132;SDS011;23948;43.252;26.572;2023-05-21T08:53:27;8.85;;;3.67;;
38132;SDS011;23948;43.252;26.572;2023-05-21T08:55:53;7.82;;;3.53;;
38132;SDS011;23948;43.252;26.572;2023-05-21T08:58:20;6.70;;;3.80;;
38132;SDS011;23948;43.252;26.572;2023-05-21T09:00:45;7.38;;;3.95;;
38132;SDS011;23948;43.252;26.572;2023-05-21T09:03:10;10.20;;;4.05;;
38132;SDS011;23948;43.252;26.572;2023-05-21T09:05:46;10.20;;;3.95;;
38132;SDS011;23948;43.252;26.572;2023-05-21T09:08:18;10.30;;;3.85;;
38132;SDS011;23948;43.252;26.572;2023-05-21T09:10:49;11.55;;;4.20;;
38132;SDS011;23948;43.252;26.572;2023-05-21T09:13:18;8.68;;;3.70;;
38132;SDS011;23948;43.252;26.572;2023-05-21T09:15:43;9.33;;;4.13;;
38132;SDS011;23948;43.252;26.572;2023-05-21T09:18:09;8.75;;;3.97;;
38132;SDS011;23948;43.252;26.572;2023-05-21T09:20:35;6.88;;;3.97;;
38132;SDS011;23948;43.252;26.572;2023-05-21T09:23:04;9.40;;;4.07;;
38132;SDS011;23948;43.252;26.572;2023-05-21T09:25:30;9.00;;;4.03;;
38132;SDS011;23948;43.252;26.572;2023-05-21T09:27:57;9.55;;;4.43;;
38132;SDS011;23948;43.252;26.572;2023-05-21T09:30:22;6.63;;;3.80;;
38132;SDS011;23948;43.252;26.572;2023-05-21T09:32:51;10.25;;;3.67;;
38132;SDS011;23948;43.252;26.572;2023-05-21T09:35:18;14.07;;;4.55;;
38132;SDS011;23948;43.252;26.572;2023-05-21T09:37:44;10.77;;;4.65;;
38132;SDS011;23948;43.252;26.572;2023-05-21T09:42:40;9.02;;;4.82;;
38132;SDS011;23948;43.252;26.572;2023-05-21T09:45:08;9.88;;;4.00;;
38132;SDS011;23948;43.252;26.572;2023-05-21T09:47:39;9.23;;;4.20;;
38132;SDS011;23948;43.252;26.572;2023-05-21T09:50:04;8.88;;;4.15;;
38132;SDS011;23948;43.252;26.572;2023-05-21T09:52:30;11.05;;;4.45;;
38132;SDS011;23948;43.252;26.572;2023-05-21T09:54:55;8.18;;;3.97;;
38132;SDS011;23948;43.252;26.572;2023-05-21T09:57:24;8.90;;;5.00;;
38132;SDS011;23948;43.252;26.572;2023-05-21T09:59:50;7.55;;;4.30;;
38132;SDS011;23948;43.252;26.572;2023-05-21T10:02:22;13.00;;;4.85;;
38132;SDS011;23948;43.252;26.572;2023-05-21T10:04:48;18.13;;;5.40;;
38132;SDS011;23948;43.252;26.572;2023-05-21T10:07:17;8.95;;;4.38;;
38132;SDS011;23948;43.252;26.572;2023-05-21T10:09:44;10.20;;;4.63;;
38132;SDS011;23948;43.252;26.572;2023-05-21T10:12:10;9.90;;;4.75;;
38132;SDS011;23948;43.252;26.572;2023-05-21T10:14:36;10.38;;;4.22;;
38132;SDS011;23948;43.252;26.572;2023-05-21T10:17:03;11.43;;;4.32;;
38132;SDS011;23948;43.252;26.572;2023-05-21T10:19:28;10.40;;;4.45;;
38132;SDS011;23948;43.252;26.572;2023-05-21T10:21:54;7.57;;;4.35;;
38132;SDS011;23948;43.252;26.572;2023-05-21T10:24:21;9.18;;;4.30;;
38132;SDS011;23948;43.252;26.572;2023-05-21T10:26:47;7.20;;;4.05;;
38132;SDS011;23948;43.252;26.572;2023-05-21T10:29:13;10.20;;;4.55;;
38132;SDS011;23948;43.252;26.572;2023-05-21T10:31:39;7.00;;;4.10;;
38132;SDS011;23948;43.252;26.572;2023-05-21T10:34:07;10.85;;;4.88;;
38132;SDS011;23948;43.252;26.572;2023-05-21T10:36:34;10.85;;;4.43;;
38132;SDS011;23948;43.252;26.572;2023-05-21T10:39:00;10.80;;;4.15;;
38132;SDS011;23948;43.252;26.572;2023-05-21T10:41:26;7.22;;;4.20;;
38132;SDS011;23948;43.252;26.572;2023-05-21T10:43:55;11.40;;;4.55;;
38132;SDS011;23948;43.252;26.572;2023-05-21T10:51:53;7.88;;;3.72;;
38132;SDS011;23948;43.252;26.572;2023-05-21T11:00:01;10.02;;;4.50;;
38132;SDS011;23948;43.252;26.572;2023-05-21T11:02:29;7.70;;;4.13;;
38132;SDS011;23948;43.252;26.572;2023-05-21T11:04:58;11.75;;;3.85;;
38132;SDS011;23948;43.252;26.572;2023-05-21T11:07:49;10.60;;;4.13;;
38132;SDS011;23948;43.252;26.572;2023-05-21T11:13:11;11.68;;;4.07;;
38132;SDS011;23948;43.252;26.572;2023-05-21T11:18:21;9.52;;;4.38;;
38132;SDS011;23948;43.252;26.572;2023-05-21T11:20:49;10.10;;;4.65;;
38132;SDS011;23948;43.252;26.572;2023-05-21T11:23:15;8.10;;;3.93;;
38132;SDS011;23948;43.252;26.572;2023-05-21T11:25:40;10.70;;;5.03;;
38132;SDS011;23948;43.252;26.572;2023-05-21T11:28:05;5.93;;;4.00;;
38132;SDS011;23948;43.252;26.572;2023-05-21T11:30:33;5.78;;;3.78;;
38132;SDS011;23948;43.252;26.572;2023-05-21T11:38:08;6.75;;;3.80;;
38132;SDS011;23948;43.252;26.572;2023-05-21T11:40:34;10.20;;;3.70;;
38132;SDS011;23948;43.252;26.572;2023-05-21T11:42:59;7.03;;;4.00;;
38132;SDS011;23948;43.252;26.572;2023-05-21T11:45:29;9.20;;;3.72;;
38132;SDS011;23948;43.252;26.572;2023-05-21T11:47:55;6.25;;;3.58;;
38132;SDS011;23948;43.252;26.572;2023-05-21T11:50:20;8.60;;;3.85;;
38132;SDS011;23948;43.252;26.572;2023-05-21T11:52:45;10.35;;;4.20;;
38132;SDS011;23948;43.252;26.572;2023-05-21T11:55:11;7.43;;;3.50;;
38132;SDS011;23948;43.252;26.572;2023-05-21T11:57:39;8.65;;;3.50;;
38132;SDS011;23948;43.252;26.572;2023-05-21T12:00:05;9.93;;;2.95;;
38132;SDS011;23948;43.252;26.572;2023-05-21T12:02:38;9.00;;;3.03;;
38132;SDS011;23948;43.252;26.572;2023-05-21T12:05:03;9.98;;;3.38;;
38132;SDS011;23948;43.252;26.572;2023-05-21T12:07:29;7.60;;;3.10;;
38132;SDS011;23948;43.252;26.572;2023-05-21T12:09:54;6.70;;;3.30;;
38132;SDS011;23948;43.252;26.572;2023-05-21T12:12:21;6.78;;;3.17;;
38132;SDS011;23948;43.252;26.572;2023-05-21T12:14:49;8.98;;;2.88;;
38132;SDS011;23948;43.252;26.572;2023-05-21T12:17:15;8.00;;;2.93;;
38132;SDS011;23948;43.252;26.572;2023-05-21T12:19:41;6.93;;;3.30;;
38132;SDS011;23948;43.252;26.572;2023-05-21T12:22:07;6.25;;;3.28;;
38132;SDS011;23948;43.252;26.572;2023-05-21T12:24:32;8.05;;;3.22;;
38132;SDS011;23948;43.252;26.572;2023-05-21T12:26:58;6.82;;;3.10;;
38132;SDS011;23948;43.252;26.572;2023-05-21T12:29:29;9.90;;;2.92;;
38132;SDS011;23948;43.252;26.572;2023-05-21T12:31:57;5.18;;;2.58;;
38132;SDS011;23948;43.252;26.572;2023-05-21T12:34:42;5.28;;;2.50;;
38132;SDS011;23948;43.252;26.572;2023-05-21T12:37:10;6.53;;;2.75;;
38132;SDS011;23948;43.252;26.572;2023-05-21T12:39:39;7.25;;;3.08;;
38132;SDS011;23948;43.252;26.572;2023-05-21T12:42:05;8.25;;;2.80;;
38132;SDS011;23948;43.252;26.572;2023-05-21T12:44:30;7.85;;;2.78;;
38132;SDS011;23948;43.252;26.572;2023-05-21T12:46:56;9.75;;;3.40;;
38132;SDS011;23948;43.252;26.572;2023-05-21T12:52:07;10.00;;;3.25;;
38132;SDS011;23948;43.252;26.572;2023-05-21T12:54:33;7.30;;;2.97;;
38132;SDS011;23948;43.252;26.572;2023-05-21T12:57:15;6.55;;;2.55;;
38132;SDS011;23948;43.252;26.572;2023-05-21T12:59:53;11.30;;;2.78;;
38132;SDS011;23948;43.252;26.572;2023-05-21T13:04:47;9.23;;;3.05;;
38132;SDS011;23948;43.252;26.572;2023-05-21T13:07:15;8.85;;;3.15;;
38132;SDS011;23948;43.252;26.572;2023-05-21T13:09:40;6.72;;;2.60;;
38132;SDS011;23948;43.252;26.572;2023-05-21T13:12:06;9.20;;;2.95;;
38132;SDS011;23948;43.252;26.572;2023-05-21T13:14:31;8.93;;;3.08;;
38132;SDS011;23948;43.252;26.572;2023-05-21T13:16:57;6.70;;;3.13;;
38132;SDS011;23948;43.252;26.572;2023-05-21T13:19:22;7.03;;;3.53;;
38132;SDS011;23948;43.252;26.572;2023-05-21T13:21:47;6.40;;;2.90;;
38132;SDS011;23948;43.252;26.572;2023-05-21T13:24:13;4.45;;;2.80;;
38132;SDS011;23948;43.252;26.572;2023-05-21T13:26:38;6.38;;;2.65;;
38132;SDS011;23948;43.252;26.572;2023-05-21T13:29:03;8.55;;;3.60;;
38132;SDS011;23948;43.252;26.572;2023-05-21T13:31:28;8.43;;;4.40;;
38132;SDS011;23948;43.252;26.572;2023-05-21T13:33:54;6.28;;;3.28;;
38132;SDS011;23948;43.252;26.572;2023-05-21T13:36:19;6.17;;;3.57;;
38132;SDS011;23948;43.252;26.572;2023-05-21T13:38:44;5.10;;;3.00;;
38132;SDS011;23948;43.252;26.572;2023-05-21T13:41:29;7.20;;;2.65;;
38132;SDS011;23948;43.252;26.572;2023-05-21T13:43:55;7.38;;;3.03;;
38132;SDS011;23948;43.252;26.572;2023-05-21T13:46:20;9.77;;;3.20;;
38132;SDS011;23948;43.252;26.572;2023-05-21T13:48:46;13.15;;;3.40;;
38132;SDS011;23948;43.252;26.572;2023-05-21T13:51:11;6.80;;;3.20;;
38132;SDS011;23948;43.252;26.572;2023-05-21T13:53:36;7.72;;;3.15;;
38132;SDS011;23948;43.252;26.572;2023-05-21T13:56:02;6.47;;;3.05;;
38132;SDS011;23948;43.252;26.572;2023-05-21T13:58:28;6.65;;;3.08;;
38132;SDS011;23948;43.252;26.572;2023-05-21T14:00:58;8.90;;;3.35;;
38132;SDS011;23948;43.252;26.572;2023-05-21T14:03:23;7.53;;;3.22;;
38132;SDS011;23948;43.252;26.572;2023-05-21T14:05:48;8.95;;;3.08;;
38132;SDS011;23948;43.252;26.572;2023-05-21T14:08:17;6.80;;;3.22;;
38132;SDS011;23948;43.252;26.572;2023-05-21T14:10:44;7.45;;;2.85;;
38132;SDS011;23948;43.252;26.572;2023-05-21T14:13:11;9.90;;;3.10;;
38132;SDS011;23948;43.252;26.572;2023-05-21T14:15:36;8.63;;;3.10;;
38132;SDS011;23948;43.252;26.572;2023-05-21T14:18:02;10.68;;;3.65;;
38132;SDS011;23948;43.252;26.572;2023-05-21T14:20:31;8.68;;;3.15;;
38132;SDS011;23948;43.252;26.572;2023-05-21T14:22:56;9.15;;;3.10;;
38132;SDS011;23948;43.252;26.572;2023-05-21T14:25:22;7.55;;;3.30;;
38132;SDS011;23948;43.252;26.572;2023-05-21T14:27:47;7.38;;;3.00;;
38132;SDS011;23948;43.252;26.572;2023-05-21T14:30:12;7.47;;;3.27;;
38132;SDS011;23948;43.252;26.572;2023-05-21T14:32:37;7.30;;;3.00;;
38132;SDS011;23948;43.252;26.572;2023-05-21T14:35:03;7.43;;;3.15;;
38132;SDS011;23948;43.252;26.572;2023-05-21T14:37:28;7.43;;;3.00;;
38132;SDS011;23948;43.252;26.572;2023-05-21T14:39:54;7.93;;;3.60;;
38132;SDS011;23948;43.252;26.572;2023-05-21T14:42:19;8.57;;;3.03;;
38132;SDS011;23948;43.252;26.572;2023-05-21T14:44:44;9.43;;;3.13;;
38132;SDS011;23948;43.252;26.572;2023-05-21T14:47:10;7.68;;;4.00;;
38132;SDS011;23948;43.252;26.572;2023-05-21T14:49:35;9.93;;;3.22;;
38132;SDS011;23948;43.252;26.572;2023-05-21T14:52:00;7.60;;;3.15;;